sensor_id;sensor_type;location;lat;lon;timestamp;P1;durP1;ratioP1;P2;durP2;ratioP2
6017;SDS011;3037;51.068;13.780;2022-11-20T00:01:44;37.30;;;19.20;;
6017;SDS011;3037;51.068;13.780;2022-11-20T00:04:10;38.63;;;20.20;;
6017;SDS011;3037;51.068;13.780;2022-11-20T00:06:36;39.53;;;18.70;;
6017;SDS011;3037;51.068;13.780;2022-11-20T00:09:02;37.87;;;20.07;;
6017;SDS011;3037;51.068;13.780;2022-11-20T00:11:30;35.47;;;19.20;;
6017;SDS011;3037;51.068;13.780;2022-11-20T00:13:57;34.20;;;18.40;;
6017;SDS011;3037;51.068;13.780;2022-11-20T00:16:25;33.63;;;18.40;;
6017;SDS011;3037;51.068;13.780;2022-11-20T00:18:52;35.80;;;19.10;;
6017;SDS011;3037;51.068;13.780;2022-11-20T00:23:45;42.90;;;20.60;;
6017;SDS011;3037;51.068;13.780;2022-11-20T00:26:12;33.23;;;17.40;;
6017;SDS011;3037;51.068;13.780;2022-11-20T00:28:39;42.40;;;20.10;;
6017;SDS011;3037;51.068;13.780;2022-11-20T00:31:07;33.40;;;19.37;;
6017;SDS011;3037;51.068;13.780;2022-11-20T00:33:38;40.30;;;20.07;;
6017;SDS011;3037;51.068;13.780;2022-11-20T00:36:04;38.43;;;19.80;;
6017;SDS011;3037;51.068;13.780;2022-11-20T00:38:32;37.43;;;19.77;;
6017;SDS011;3037;51.068;13.780;2022-11-20T00:40:59;46.73;;;22.07;;
6017;SDS011;3037;51.068;13.780;2022-11-20T00:43:26;33.77;;;17.60;;
6017;SDS011;3037;51.068;13.780;2022-11-20T00:45:56;43.53;;;19.60;;
6017;SDS011;3037;51.068;13.780;2022-11-20T00:48:25;41.27;;;19.57;;
6017;SDS011;3037;51.068;13.780;2022-11-20T00:50:51;44.30;;;20.13;;
6017;SDS011;3037;51.068;13.780;2022-11-20T00:53:16;31.83;;;18.20;;
6017;SDS011;3037;51.068;13.780;2022-11-20T00:55:42;42.83;;;20.67;;
6017;SDS011;3037;51.068;13.780;2022-11-20T00:58:07;36.80;;;18.13;;
6017;SDS011;3037;51.068;13.780;2022-11-20T01:00:33;37.53;;;19.30;;
6017;SDS011;3037;51.068;13.780;2022-11-20T01:02:59;39.70;;;19.50;;
6017;SDS011;3037;51.068;13.780;2022-11-20T01:05:24;30.63;;;18.60;;
6017;SDS011;3037;51.068;13.780;2022-11-20T01:07:50;45.17;;;19.43;;
6017;SDS011;3037;51.068;13.780;2022-11-20T01:10:16;37.40;;;19.73;;
6017;SDS011;3037;51.068;13.780;2022-11-20T01:12:42;34.23;;;18.40;;
6017;SDS011;3037;51.068;13.780;2022-11-20T01:15:07;40.13;;;20.33;;
6017;SDS011;3037;51.068;13.780;2022-11-20T01:17:33;36.43;;;18.00;;
6017;SDS011;3037;51.068;13.780;2022-11-20T01:19:59;37.80;;;17.90;;
6017;SDS011;3037;51.068;13.780;2022-11-20T01:22:24;34.93;;;19.90;;
6017;SDS011;3037;51.068;13.780;2022-11-20T01:24:50;40.37;;;19.80;;
6017;SDS011;3037;51.068;13.780;2022-11-20T01:27:15;41.50;;;20.23;;
6017;SDS011;3037;51.068;13.780;2022-11-20T01:29:41;40.47;;;21.33;;
6017;SDS011;3037;51.068;13.780;2022-11-20T01:32:06;39.40;;;19.40;;
6017;SDS011;3037;51.068;13.780;2022-11-20T01:34:32;45.30;;;20.70;;
6017;SDS011;3037;51.068;13.780;2022-11-20T01:36:57;36.33;;;20.10;;
6017;SDS011;3037;51.068;13.780;2022-11-20T01:39:25;34.87;;;18.40;;
6017;SDS011;3037;51.068;13.780;2022-11-20T01:41:51;36.07;;;18.83;;
6017;SDS011;3037;51.068;13.780;2022-11-20T01:44:43;34.20;;;16.87;;
6017;SDS011;3037;51.068;13.780;2022-11-20T01:47:21;37.80;;;18.70;;
6017;SDS011;3037;51.068;13.780;2022-11-20T01:49:58;40.60;;;20.27;;
6017;SDS011;3037;51.068;13.780;2022-11-20T01:53:03;39.60;;;19.50;;
6017;SDS011;3037;51.068;13.780;2022-11-20T01:55:30;35.30;;;20.20;;
6017;SDS011;3037;51.068;13.780;2022-11-20T01:57:59;40.80;;;18.37;;
6017;SDS011;3037;51.068;13.780;2022-11-20T02:00:26;34.30;;;16.47;;
6017;SDS011;3037;51.068;13.780;2022-11-20T02:02:54;36.17;;;18.73;;
6017;SDS011;3037;51.068;13.780;2022-11-20T02:05:32;35.67;;;19.47;;
6017;SDS011;3037;51.068;13.780;2022-11-20T02:08:05;35.60;;;19.43;;
6017;SDS011;3037;51.068;13.780;2022-11-20T02:10:31;38.37;;;18.40;;
6017;SDS011;3037;51.068;13.780;2022-11-20T02:12:57;40.93;;;18.30;;
6017;SDS011;3037;51.068;13.780;2022-11-20T02:15:41;31.63;;;17.57;;
6017;SDS011;3037;51.068;13.780;2022-11-20T02:18:07;33.97;;;17.23;;
6017;SDS011;3037;51.068;13.780;2022-11-20T02:20:34;37.47;;;17.50;;
6017;SDS011;3037;51.068;13.780;2022-11-20T02:23:05;31.87;;;18.17;;
6017;SDS011;3037;51.068;13.780;2022-11-20T02:25:45;34.90;;;18.07;;
6017;SDS011;3037;51.068;13.780;2022-11-20T02:28:12;36.20;;;19.13;;
6017;SDS011;3037;51.068;13.780;2022-11-20T02:30:38;34.03;;;19.07;;
6017;SDS011;3037;51.068;13.780;2022-11-20T02:33:03;36.73;;;18.57;;
6017;SDS011;3037;51.068;13.780;2022-11-20T02:37:55;36.60;;;17.93;;
6017;SDS011;3037;51.068;13.780;2022-11-20T02:40:22;37.27;;;19.37;;
6017;SDS011;3037;51.068;13.780;2022-11-20T02:42:52;34.93;;;18.00;;
6017;SDS011;3037;51.068;13.780;2022-11-20T02:45:18;40.60;;;19.80;;
6017;SDS011;3037;51.068;13.780;2022-11-20T02:47:43;36.23;;;20.20;;
6017;SDS011;3037;51.068;13.780;2022-11-20T02:50:09;39.27;;;18.23;;
6017;SDS011;3037;51.068;13.780;2022-11-20T02:52:35;36.63;;;18.67;;
6017;SDS011;3037;51.068;13.780;2022-11-20T02:55:00;44.43;;;20.10;;
6017;SDS011;3037;51.068;13.780;2022-11-20T02:57:26;32.43;;;17.70;;
6017;SDS011;3037;51.068;13.780;2022-11-20T02:59:52;33.53;;;17.70;;
6017;SDS011;3037;51.068;13.780;2022-11-20T03:02:17;30.30;;;17.43;;
6017;SDS011;3037;51.068;13.780;2022-11-20T03:04:43;35.90;;;19.67;;
6017;SDS011;3037;51.068;13.780;2022-11-20T03:07:08;37.30;;;17.70;;
6017;SDS011;3037;51.068;13.780;2022-11-20T03:09:34;32.87;;;18.03;;
6017;SDS011;3037;51.068;13.780;2022-11-20T03:12:00;35.57;;;19.70;;
6017;SDS011;3037;51.068;13.780;2022-11-20T03:14:25;36.57;;;18.83;;
6017;SDS011;3037;51.068;13.780;2022-11-20T03:16:51;43.47;;;19.60;;
6017;SDS011;3037;51.068;13.780;2022-11-20T03:19:17;31.73;;;17.93;;
6017;SDS011;3037;51.068;13.780;2022-11-20T03:21:43;35.57;;;18.13;;
6017;SDS011;3037;51.068;13.780;2022-11-20T03:24:08;33.00;;;16.80;;
6017;SDS011;3037;51.068;13.780;2022-11-20T03:26:34;38.10;;;18.77;;
6017;SDS011;3037;51.068;13.780;2022-11-20T03:29:00;36.20;;;20.63;;
6017;SDS011;3037;51.068;13.780;2022-11-20T03:31:31;37.77;;;18.40;;
6017;SDS011;3037;51.068;13.780;2022-11-20T03:33:58;37.80;;;19.27;;
6017;SDS011;3037;51.068;13.780;2022-11-20T03:36:24;34.97;;;19.13;;
6017;SDS011;3037;51.068;13.780;2022-11-20T03:38:50;39.87;;;19.10;;
6017;SDS011;3037;51.068;13.780;2022-11-20T03:41:19;34.17;;;18.57;;
6017;SDS011;3037;51.068;13.780;2022-11-20T03:46:25;41.70;;;21.13;;
6017;SDS011;3037;51.068;13.780;2022-11-20T03:48:51;38.13;;;19.53;;
6017;SDS011;3037;51.068;13.780;2022-11-20T03:51:18;36.70;;;19.23;;
6017;SDS011;3037;51.068;13.780;2022-11-20T03:53:46;34.80;;;17.90;;
6017;SDS011;3037;51.068;13.780;2022-11-20T03:56:13;38.33;;;19.27;;
6017;SDS011;3037;51.068;13.780;2022-11-20T03:58:40;35.43;;;18.03;;
6017;SDS011;3037;51.068;13.780;2022-11-20T04:01:09;38.37;;;18.83;;
6017;SDS011;3037;51.068;13.780;2022-11-20T04:03:37;35.47;;;19.60;;
6017;SDS011;3037;51.068;13.780;2022-11-20T04:06:05;34.77;;;17.90;;
6017;SDS011;3037;51.068;13.780;2022-11-20T04:08:32;27.70;;;15.33;;
6017;SDS011;3037;51.068;13.780;2022-11-20T04:11:08;35.47;;;16.80;;
6017;SDS011;3037;51.068;13.780;2022-11-20T04:13:38;35.80;;;19.03;;
6017;SDS011;3037;51.068;13.780;2022-11-20T04:16:04;32.60;;;16.13;;
6017;SDS011;3037;51.068;13.780;2022-11-20T04:18:30;30.93;;;16.50;;
6017;SDS011;3037;51.068;13.780;2022-11-20T04:20:57;34.83;;;17.40;;
6017;SDS011;3037;51.068;13.780;2022-11-20T04:23:22;34.47;;;16.90;;
6017;SDS011;3037;51.068;13.780;2022-11-20T04:25:48;36.33;;;18.83;;
6017;SDS011;3037;51.068;13.780;2022-11-20T04:28:14;33.67;;;17.90;;
6017;SDS011;3037;51.068;13.780;2022-11-20T04:30:39;35.80;;;17.10;;
6017;SDS011;3037;51.068;13.780;2022-11-20T04:33:05;34.83;;;18.00;;
6017;SDS011;3037;51.068;13.780;2022-11-20T04:35:33;34.57;;;17.10;;
6017;SDS011;3037;51.068;13.780;2022-11-20T04:37:59;45.30;;;18.70;;
6017;SDS011;3037;51.068;13.780;2022-11-20T04:40:25;29.90;;;16.70;;
6017;SDS011;3037;51.068;13.780;2022-11-20T04:42:50;31.70;;;16.23;;
6017;SDS011;3037;51.068;13.780;2022-11-20T04:45:16;29.20;;;16.97;;
6017;SDS011;3037;51.068;13.780;2022-11-20T04:47:42;33.37;;;16.33;;
6017;SDS011;3037;51.068;13.780;2022-11-20T04:50:07;31.13;;;15.70;;
6017;SDS011;3037;51.068;13.780;2022-11-20T04:52:33;34.40;;;17.37;;
6017;SDS011;3037;51.068;13.780;2022-11-20T04:54:59;36.03;;;17.33;;
6017;SDS011;3037;51.068;13.780;2022-11-20T04:57:24;33.50;;;19.43;;
6017;SDS011;3037;51.068;13.780;2022-11-20T04:59:50;36.90;;;17.70;;
6017;SDS011;3037;51.068;13.780;2022-11-20T05:02:15;32.50;;;16.77;;
6017;SDS011;3037;51.068;13.780;2022-11-20T05:04:41;30.40;;;16.07;;
6017;SDS011;3037;51.068;13.780;2022-11-20T05:07:06;42.63;;;17.07;;
6017;SDS011;3037;51.068;13.780;2022-11-20T05:09:32;29.90;;;14.70;;
6017;SDS011;3037;51.068;13.780;2022-11-20T05:11:57;30.67;;;16.77;;
6017;SDS011;3037;51.068;13.780;2022-11-20T05:14:23;30.40;;;16.40;;
6017;SDS011;3037;51.068;13.780;2022-11-20T05:16:48;35.60;;;17.07;;
6017;SDS011;3037;51.068;13.780;2022-11-20T05:19:14;32.67;;;16.57;;
6017;SDS011;3037;51.068;13.780;2022-11-20T05:21:39;32.13;;;16.40;;
6017;SDS011;3037;51.068;13.780;2022-11-20T05:24:05;32.37;;;17.63;;
6017;SDS011;3037;51.068;13.780;2022-11-20T05:26:31;38.43;;;18.10;;
6017;SDS011;3037;51.068;13.780;2022-11-20T05:28:57;33.23;;;16.47;;
6017;SDS011;3037;51.068;13.780;2022-11-20T05:31:23;38.00;;;18.57;;
6017;SDS011;3037;51.068;13.780;2022-11-20T05:33:49;35.53;;;18.20;;
6017;SDS011;3037;51.068;13.780;2022-11-20T05:36:16;31.13;;;17.10;;
6017;SDS011;3037;51.068;13.780;2022-11-20T05:38:42;32.77;;;16.70;;
6017;SDS011;3037;51.068;13.780;2022-11-20T05:41:09;44.30;;;18.07;;
6017;SDS011;3037;51.068;13.780;2022-11-20T05:43:37;31.43;;;16.60;;
6017;SDS011;3037;51.068;13.780;2022-11-20T05:46:05;47.30;;;17.40;;
6017;SDS011;3037;51.068;13.780;2022-11-20T05:48:32;34.33;;;17.53;;
6017;SDS011;3037;51.068;13.780;2022-11-20T05:50:58;34.33;;;17.50;;
6017;SDS011;3037;51.068;13.780;2022-11-20T05:53:25;35.70;;;18.30;;
6017;SDS011;3037;51.068;13.780;2022-11-20T05:55:57;41.07;;;20.03;;
6017;SDS011;3037;51.068;13.780;2022-11-20T05:58:28;33.23;;;17.60;;
6017;SDS011;3037;51.068;13.780;2022-11-20T06:00:53;37.27;;;19.13;;
6017;SDS011;3037;51.068;13.780;2022-11-20T06:03:19;38.73;;;18.40;;
6017;SDS011;3037;51.068;13.780;2022-11-20T06:05:45;37.97;;;18.30;;
6017;SDS011;3037;51.068;13.780;2022-11-20T06:08:11;37.17;;;18.10;;
6017;SDS011;3037;51.068;13.780;2022-11-20T06:10:36;34.27;;;17.77;;
6017;SDS011;3037;51.068;13.780;2022-11-20T06:13:02;40.60;;;17.63;;
6017;SDS011;3037;51.068;13.780;2022-11-20T06:15:27;36.77;;;19.07;;
6017;SDS011;3037;51.068;13.780;2022-11-20T06:17:53;32.23;;;16.27;;
6017;SDS011;3037;51.068;13.780;2022-11-20T06:20:19;37.33;;;18.07;;
6017;SDS011;3037;51.068;13.780;2022-11-20T06:22:45;39.40;;;18.27;;
6017;SDS011;3037;51.068;13.780;2022-11-20T06:25:11;34.63;;;18.30;;
6017;SDS011;3037;51.068;13.780;2022-11-20T06:27:36;52.00;;;19.53;;
6017;SDS011;3037;51.068;13.780;2022-11-20T06:30:02;38.60;;;18.07;;
6017;SDS011;3037;51.068;13.780;2022-11-20T06:32:29;35.33;;;18.83;;
6017;SDS011;3037;51.068;13.780;2022-11-20T06:34:54;35.80;;;16.70;;
6017;SDS011;3037;51.068;13.780;2022-11-20T06:37:20;38.37;;;19.43;;
6017;SDS011;3037;51.068;13.780;2022-11-20T06:39:45;33.93;;;17.00;;
6017;SDS011;3037;51.068;13.780;2022-11-20T06:42:11;37.17;;;20.10;;
6017;SDS011;3037;51.068;13.780;2022-11-20T06:44:36;34.90;;;17.47;;
6017;SDS011;3037;51.068;13.780;2022-11-20T06:47:02;36.50;;;17.03;;
6017;SDS011;3037;51.068;13.780;2022-11-20T06:49:28;36.37;;;18.53;;
6017;SDS011;3037;51.068;13.780;2022-11-20T06:51:53;33.47;;;17.60;;
6017;SDS011;3037;51.068;13.780;2022-11-20T06:54:19;41.77;;;19.80;;
6017;SDS011;3037;51.068;13.780;2022-11-20T06:56:47;41.47;;;19.27;;
6017;SDS011;3037;51.068;13.780;2022-11-20T06:59:13;38.37;;;18.83;;
6017;SDS011;3037;51.068;13.780;2022-11-20T07:01:39;38.80;;;19.20;;
6017;SDS011;3037;51.068;13.780;2022-11-20T07:04:04;46.30;;;20.20;;
6017;SDS011;3037;51.068;13.780;2022-11-20T07:06:30;36.03;;;18.70;;
6017;SDS011;3037;51.068;13.780;2022-11-20T07:08:56;40.73;;;19.50;;
6017;SDS011;3037;51.068;13.780;2022-11-20T07:11:22;37.03;;;18.97;;
6017;SDS011;3037;51.068;13.780;2022-11-20T07:13:48;35.03;;;17.40;;
6017;SDS011;3037;51.068;13.780;2022-11-20T07:16:13;38.43;;;18.13;;
6017;SDS011;3037;51.068;13.780;2022-11-20T07:18:39;38.00;;;18.73;;
6017;SDS011;3037;51.068;13.780;2022-11-20T07:21:05;37.03;;;20.20;;
6017;SDS011;3037;51.068;13.780;2022-11-20T07:23:33;39.60;;;18.47;;
6017;SDS011;3037;51.068;13.780;2022-11-20T07:26:06;48.33;;;19.17;;
6017;SDS011;3037;51.068;13.780;2022-11-20T07:28:33;34.20;;;16.63;;
6017;SDS011;3037;51.068;13.780;2022-11-20T07:30:59;37.73;;;17.87;;
6017;SDS011;3037;51.068;13.780;2022-11-20T07:33:24;31.93;;;17.77;;
6017;SDS011;3037;51.068;13.780;2022-11-20T07:35:50;28.30;;;15.27;;
6017;SDS011;3037;51.068;13.780;2022-11-20T07:38:16;36.43;;;17.03;;
6017;SDS011;3037;51.068;13.780;2022-11-20T07:40:41;31.07;;;16.83;;
6017;SDS011;3037;51.068;13.780;2022-11-20T07:43:07;33.67;;;17.47;;
6017;SDS011;3037;51.068;13.780;2022-11-20T07:45:33;37.83;;;16.47;;
6017;SDS011;3037;51.068;13.780;2022-11-20T07:47:58;31.13;;;16.30;;
6017;SDS011;3037;51.068;13.780;2022-11-20T07:50:24;29.33;;;14.87;;
6017;SDS011;3037;51.068;13.780;2022-11-20T07:52:49;30.57;;;15.33;;
6017;SDS011;3037;51.068;13.780;2022-11-20T07:55:15;30.90;;;15.17;;
6017;SDS011;3037;51.068;13.780;2022-11-20T07:57:41;28.13;;;15.50;;
6017;SDS011;3037;51.068;13.780;2022-11-20T08:00:07;29.07;;;14.03;;
6017;SDS011;3037;51.068;13.780;2022-11-20T08:02:34;28.53;;;16.57;;
6017;SDS011;3037;51.068;13.780;2022-11-20T08:05:03;28.60;;;15.47;;
6017;SDS011;3037;51.068;13.780;2022-11-20T08:07:34;26.40;;;17.20;;
6017;SDS011;3037;51.068;13.780;2022-11-20T08:10:01;25.80;;;17.10;;
6017;SDS011;3037;51.068;13.780;2022-11-20T08:12:27;27.73;;;16.57;;
6017;SDS011;3037;51.068;13.780;2022-11-20T08:15:11;30.63;;;17.80;;
6017;SDS011;3037;51.068;13.780;2022-11-20T08:17:36;28.10;;;16.30;;
6017;SDS011;3037;51.068;13.780;2022-11-20T08:20:02;29.77;;;16.40;;
6017;SDS011;3037;51.068;13.780;2022-11-20T08:22:28;32.53;;;18.03;;
6017;SDS011;3037;51.068;13.780;2022-11-20T08:24:54;32.47;;;18.37;;
6017;SDS011;3037;51.068;13.780;2022-11-20T08:27:19;32.60;;;18.27;;
6017;SDS011;3037;51.068;13.780;2022-11-20T08:29:45;32.47;;;17.50;;
6017;SDS011;3037;51.068;13.780;2022-11-20T08:32:10;28.53;;;17.60;;
6017;SDS011;3037;51.068;13.780;2022-11-20T08:34:36;29.70;;;17.50;;
6017;SDS011;3037;51.068;13.780;2022-11-20T08:37:01;25.70;;;16.87;;
6017;SDS011;3037;51.068;13.780;2022-11-20T08:39:27;27.30;;;17.47;;
6017;SDS011;3037;51.068;13.780;2022-11-20T08:41:53;26.13;;;18.63;;
6017;SDS011;3037;51.068;13.780;2022-11-20T08:44:18;28.87;;;16.90;;
6017;SDS011;3037;51.068;13.780;2022-11-20T08:46:44;31.43;;;17.93;;
6017;SDS011;3037;51.068;13.780;2022-11-20T08:49:11;29.33;;;19.70;;
6017;SDS011;3037;51.068;13.780;2022-11-20T08:51:38;28.57;;;18.20;;
6017;SDS011;3037;51.068;13.780;2022-11-20T08:54:05;31.37;;;17.87;;
6017;SDS011;3037;51.068;13.780;2022-11-20T08:56:31;30.77;;;18.90;;
6017;SDS011;3037;51.068;13.780;2022-11-20T08:58:57;36.13;;;20.30;;
6017;SDS011;3037;51.068;13.780;2022-11-20T09:01:24;40.57;;;20.30;;
6017;SDS011;3037;51.068;13.780;2022-11-20T09:03:50;30.30;;;20.13;;
6017;SDS011;3037;51.068;13.780;2022-11-20T09:06:16;37.23;;;19.77;;
6017;SDS011;3037;51.068;13.780;2022-11-20T09:08:42;27.73;;;18.00;;
6017;SDS011;3037;51.068;13.780;2022-11-20T09:11:07;29.43;;;18.27;;
6017;SDS011;3037;51.068;13.780;2022-11-20T09:13:34;25.53;;;17.53;;
6017;SDS011;3037;51.068;13.780;2022-11-20T09:16:07;33.50;;;18.90;;
6017;SDS011;3037;51.068;13.780;2022-11-20T09:18:34;30.50;;;18.90;;
6017;SDS011;3037;51.068;13.780;2022-11-20T09:21:02;32.53;;;17.80;;
6017;SDS011;3037;51.068;13.780;2022-11-20T09:23:33;34.63;;;19.33;;
6017;SDS011;3037;51.068;13.780;2022-11-20T09:26:05;28.50;;;17.40;;
6017;SDS011;3037;51.068;13.780;2022-11-20T09:28:31;24.70;;;16.60;;
6017;SDS011;3037;51.068;13.780;2022-11-20T09:30:57;29.27;;;17.60;;
6017;SDS011;3037;51.068;13.780;2022-11-20T09:33:23;25.00;;;16.30;;
6017;SDS011;3037;51.068;13.780;2022-11-20T09:35:49;26.30;;;16.00;;
6017;SDS011;3037;51.068;13.780;2022-11-20T09:38:14;26.43;;;16.57;;
6017;SDS011;3037;51.068;13.780;2022-11-20T09:40:43;29.30;;;17.90;;
6017;SDS011;3037;51.068;13.780;2022-11-20T09:43:18;24.77;;;15.63;;
6017;SDS011;3037;51.068;13.780;2022-11-20T09:46:13;30.23;;;16.27;;
6017;SDS011;3037;51.068;13.780;2022-11-20T09:51:56;23.60;;;14.70;;
6017;SDS011;3037;51.068;13.780;2022-11-20T09:54:30;21.63;;;15.37;;
6017;SDS011;3037;51.068;13.780;2022-11-20T09:57:03;17.97;;;13.57;;
6017;SDS011;3037;51.068;13.780;2022-11-20T09:59:39;23.17;;;15.20;;
6017;SDS011;3037;51.068;13.780;2022-11-20T10:04:49;21.77;;;13.20;;
6017;SDS011;3037;51.068;13.780;2022-11-20T10:07:37;24.57;;;13.90;;
6017;SDS011;3037;51.068;13.780;2022-11-20T10:10:15;22.97;;;14.73;;
6017;SDS011;3037;51.068;13.780;2022-11-20T10:12:50;18.17;;;13.77;;
6017;SDS011;3037;51.068;13.780;2022-11-20T10:18:10;23.43;;;14.97;;
6017;SDS011;3037;51.068;13.780;2022-11-20T10:21:01;18.33;;;12.97;;
6017;SDS011;3037;51.068;13.780;2022-11-20T10:23:54;22.40;;;13.60;;
6017;SDS011;3037;51.068;13.780;2022-11-20T10:32:58;22.03;;;13.00;;
6017;SDS011;3037;51.068;13.780;2022-11-20T10:35:42;20.33;;;11.97;;
6017;SDS011;3037;51.068;13.780;2022-11-20T10:38:29;19.63;;;11.77;;
6017;SDS011;3037;51.068;13.780;2022-11-20T10:41:02;18.30;;;12.47;;
6017;SDS011;3037;51.068;13.780;2022-11-20T10:43:49;22.20;;;11.20;;
6017;SDS011;3037;51.068;13.780;2022-11-20T10:46:43;17.03;;;11.73;;
6017;SDS011;3037;51.068;13.780;2022-11-20T10:49:13;17.17;;;12.57;;
6017;SDS011;3037;51.068;13.780;2022-11-20T10:51:55;20.70;;;12.33;;
6017;SDS011;3037;51.068;13.780;2022-11-20T10:54:41;17.33;;;11.80;;
6017;SDS011;3037;51.068;13.780;2022-11-20T10:58:01;18.83;;;11.97;;
6017;SDS011;3037;51.068;13.780;2022-11-20T11:00:19;14.40;;;10.27;;
6017;SDS011;3037;51.068;13.780;2022-11-20T11:02:52;19.83;;;12.10;;
6017;SDS011;3037;51.068;13.780;2022-11-20T11:08:13;15.30;;;10.80;;
6017;SDS011;3037;51.068;13.780;2022-11-20T11:13:23;18.30;;;10.00;;
6017;SDS011;3037;51.068;13.780;2022-11-20T11:15:53;14.37;;;9.83;;
6017;SDS011;3037;51.068;13.780;2022-11-20T11:20:55;18.50;;;11.07;;
6017;SDS011;3037;51.068;13.780;2022-11-20T11:23:32;25.77;;;13.40;;
6017;SDS011;3037;51.068;13.780;2022-11-20T11:26:02;16.37;;;9.50;;
6017;SDS011;3037;51.068;13.780;2022-11-20T11:28:29;20.67;;;11.20;;
6017;SDS011;3037;51.068;13.780;2022-11-20T11:30:54;14.87;;;10.10;;
6017;SDS011;3037;51.068;13.780;2022-11-20T11:33:25;17.10;;;10.93;;
6017;SDS011;3037;51.068;13.780;2022-11-20T11:36:02;11.70;;;8.53;;
6017;SDS011;3037;51.068;13.780;2022-11-20T11:38:30;12.43;;;9.30;;
6017;SDS011;3037;51.068;13.780;2022-11-20T11:41:05;17.20;;;9.80;;
6017;SDS011;3037;51.068;13.780;2022-11-20T11:43:34;16.53;;;9.10;;
6017;SDS011;3037;51.068;13.780;2022-11-20T11:48:54;12.57;;;7.93;;
6017;SDS011;3037;51.068;13.780;2022-11-20T11:51:28;15.17;;;7.97;;
6017;SDS011;3037;51.068;13.780;2022-11-20T11:54:19;11.90;;;7.17;;
6017;SDS011;3037;51.068;13.780;2022-11-20T11:56:48;12.60;;;7.70;;
6017;SDS011;3037;51.068;13.780;2022-11-20T12:00:03;11.47;;;7.50;;
6017;SDS011;3037;51.068;13.780;2022-11-20T12:02:31;10.30;;;7.00;;
6017;SDS011;3037;51.068;13.780;2022-11-20T12:05:50;9.93;;;7.03;;
6017;SDS011;3037;51.068;13.780;2022-11-20T12:13:41;10.33;;;7.30;;
6017;SDS011;3037;51.068;13.780;2022-11-20T12:16:41;10.37;;;6.53;;
6017;SDS011;3037;51.068;13.780;2022-11-20T12:19:08;11.43;;;7.97;;
6017;SDS011;3037;51.068;13.780;2022-11-20T12:21:43;13.60;;;7.83;;
6017;SDS011;3037;51.068;13.780;2022-11-20T12:24:32;11.03;;;7.73;;
6017;SDS011;3037;51.068;13.780;2022-11-20T12:30:04;12.87;;;8.47;;
6017;SDS011;3037;51.068;13.780;2022-11-20T12:35:32;14.90;;;7.80;;
6017;SDS011;3037;51.068;13.780;2022-11-20T12:43:32;16.03;;;7.60;;
6017;SDS011;3037;51.068;13.780;2022-11-20T12:57:16;11.53;;;8.10;;
6017;SDS011;3037;51.068;13.780;2022-11-20T13:00:15;7.83;;;6.63;;
6017;SDS011;3037;51.068;13.780;2022-11-20T13:03:00;15.03;;;7.27;;
6017;SDS011;3037;51.068;13.780;2022-11-20T13:05:51;13.73;;;7.97;;
6017;SDS011;3037;51.068;13.780;2022-11-20T13:08:24;12.30;;;8.27;;
6017;SDS011;3037;51.068;13.780;2022-11-20T13:11:01;12.83;;;8.20;;
6017;SDS011;3037;51.068;13.780;2022-11-20T13:16:10;12.87;;;8.17;;
6017;SDS011;3037;51.068;13.780;2022-11-20T13:18:39;11.43;;;8.10;;
6017;SDS011;3037;51.068;13.780;2022-11-20T13:21:14;12.77;;;8.20;;
6017;SDS011;3037;51.068;13.780;2022-11-20T13:23:44;13.03;;;6.53;;
6017;SDS011;3037;51.068;13.780;2022-11-20T13:26:17;11.57;;;7.93;;
6017;SDS011;3037;51.068;13.780;2022-11-20T13:28:48;10.07;;;6.80;;
6017;SDS011;3037;51.068;13.780;2022-11-20T13:31:35;8.40;;;6.10;;
6017;SDS011;3037;51.068;13.780;2022-11-20T13:34:09;8.47;;;6.13;;
6017;SDS011;3037;51.068;13.780;2022-11-20T13:36:38;8.50;;;6.50;;
6017;SDS011;3037;51.068;13.780;2022-11-20T13:39:24;7.37;;;5.73;;
6017;SDS011;3037;51.068;13.780;2022-11-20T13:41:59;11.13;;;6.70;;
6017;SDS011;3037;51.068;13.780;2022-11-20T13:44:47;10.60;;;7.00;;
6017;SDS011;3037;51.068;13.780;2022-11-20T13:47:26;9.10;;;5.97;;
6017;SDS011;3037;51.068;13.780;2022-11-20T13:49:53;9.50;;;6.00;;
6017;SDS011;3037;51.068;13.780;2022-11-20T14:03:44;7.80;;;6.70;;
6017;SDS011;3037;51.068;13.780;2022-11-20T14:06:20;12.27;;;7.00;;
6017;SDS011;3037;51.068;13.780;2022-11-20T14:08:52;10.93;;;8.43;;
6017;SDS011;3037;51.068;13.780;2022-11-20T14:11:19;9.90;;;7.13;;
6017;SDS011;3037;51.068;13.780;2022-11-20T14:13:59;9.80;;;6.60;;
6017;SDS011;3037;51.068;13.780;2022-11-20T14:16:30;9.63;;;6.73;;
6017;SDS011;3037;51.068;13.780;2022-11-20T14:19:08;8.57;;;6.93;;
6017;SDS011;3037;51.068;13.780;2022-11-20T14:21:48;8.93;;;6.80;;
6017;SDS011;3037;51.068;13.780;2022-11-20T14:24:20;7.50;;;6.70;;
6017;SDS011;3037;51.068;13.780;2022-11-20T14:26:48;11.40;;;7.37;;
6017;SDS011;3037;51.068;13.780;2022-11-20T14:29:16;12.33;;;7.83;;
6017;SDS011;3037;51.068;13.780;2022-11-20T14:31:44;9.90;;;7.17;;
6017;SDS011;3037;51.068;13.780;2022-11-20T14:34:17;10.63;;;7.67;;
6017;SDS011;3037;51.068;13.780;2022-11-20T14:36:45;9.63;;;6.97;;
6017;SDS011;3037;51.068;13.780;2022-11-20T14:39:12;9.03;;;6.80;;
6017;SDS011;3037;51.068;13.780;2022-11-20T14:41:52;14.73;;;8.23;;
6017;SDS011;3037;51.068;13.780;2022-11-20T14:44:23;11.60;;;7.60;;
6017;SDS011;3037;51.068;13.780;2022-11-20T14:46:59;10.97;;;8.00;;
6017;SDS011;3037;51.068;13.780;2022-11-20T14:49:26;12.63;;;8.73;;
6017;SDS011;3037;51.068;13.780;2022-11-20T14:52:15;11.47;;;8.07;;
6017;SDS011;3037;51.068;13.780;2022-11-20T14:54:43;12.53;;;7.87;;
6017;SDS011;3037;51.068;13.780;2022-11-20T14:57:20;12.27;;;7.97;;
6017;SDS011;3037;51.068;13.780;2022-11-20T14:59:51;10.63;;;7.90;;
6017;SDS011;3037;51.068;13.780;2022-11-20T15:02:28;9.13;;;7.33;;
6017;SDS011;3037;51.068;13.780;2022-11-20T15:04:58;13.03;;;10.47;;
6017;SDS011;3037;51.068;13.780;2022-11-20T15:07:33;10.30;;;8.50;;
6017;SDS011;3037;51.068;13.780;2022-11-20T15:10:02;13.20;;;8.80;;
6017;SDS011;3037;51.068;13.780;2022-11-20T15:12:30;15.10;;;9.23;;
6017;SDS011;3037;51.068;13.780;2022-11-20T15:14:58;10.73;;;8.40;;
6017;SDS011;3037;51.068;13.780;2022-11-20T15:17:23;11.60;;;8.67;;
6017;SDS011;3037;51.068;13.780;2022-11-20T15:19:49;12.37;;;8.80;;
6017;SDS011;3037;51.068;13.780;2022-11-20T15:22:16;13.23;;;9.30;;
6017;SDS011;3037;51.068;13.780;2022-11-20T15:24:41;15.00;;;9.53;;
6017;SDS011;3037;51.068;13.780;2022-11-20T15:27:07;14.83;;;9.27;;
6017;SDS011;3037;51.068;13.780;2022-11-20T15:29:34;13.10;;;8.83;;
6017;SDS011;3037;51.068;13.780;2022-11-20T15:31:59;12.40;;;9.20;;
6017;SDS011;3037;51.068;13.780;2022-11-20T15:34:26;14.00;;;9.40;;
6017;SDS011;3037;51.068;13.780;2022-11-20T15:36:52;15.37;;;9.70;;
6017;SDS011;3037;51.068;13.780;2022-11-20T15:39:19;13.63;;;9.93;;
6017;SDS011;3037;51.068;13.780;2022-11-20T15:41:45;16.87;;;9.97;;
6017;SDS011;3037;51.068;13.780;2022-11-20T15:44:11;17.97;;;9.93;;
6017;SDS011;3037;51.068;13.780;2022-11-20T15:46:37;18.77;;;11.23;;
6017;SDS011;3037;51.068;13.780;2022-11-20T15:49:10;15.80;;;10.80;;
6017;SDS011;3037;51.068;13.780;2022-11-20T15:51:39;20.47;;;10.10;;
6017;SDS011;3037;51.068;13.780;2022-11-20T15:54:14;18.70;;;10.90;;
6017;SDS011;3037;51.068;13.780;2022-11-20T15:56:44;17.43;;;11.43;;
6017;SDS011;3037;51.068;13.780;2022-11-20T15:59:10;15.83;;;10.90;;
6017;SDS011;3037;51.068;13.780;2022-11-20T16:01:37;17.50;;;11.50;;
6017;SDS011;3037;51.068;13.780;2022-11-20T16:04:04;16.10;;;11.00;;
6017;SDS011;3037;51.068;13.780;2022-11-20T16:06:33;17.83;;;10.60;;
6017;SDS011;3037;51.068;13.780;2022-11-20T16:08:59;22.93;;;12.10;;